createdAt,value
2019-05-20T00:00:42.740Z,11.55
2019-05-20T00:03:08.955Z,9.98
2019-05-20T00:05:35.170Z,9.73
2019-05-20T00:08:01.440Z,7.72
2019-05-20T00:10:27.637Z,10.72
2019-05-20T00:12:53.843Z,9.43
2019-05-20T00:15:20.040Z,9.45
2019-05-20T00:17:46.235Z,10.90
2019-05-20T00:20:12.598Z,12.30
2019-05-20T00:22:38.822Z,9.83
2019-05-20T00:25:11.831Z,10.98
2019-05-20T00:27:38.041Z,11.22
2019-05-20T00:30:05.264Z,12.20
2019-05-20T00:32:40.769Z,9.83
2019-05-20T00:34:59.535Z,8.70
2019-05-20T00:37:25.714Z,8.48
2019-05-20T00:39:51.966Z,11.00
2019-05-20T00:42:18.162Z,10.38
2019-05-20T00:44:44.451Z,14.18
2019-05-20T00:47:10.721Z,14.93
2019-05-20T00:49:36.878Z,12.88
2019-05-20T00:52:03.113Z,12.03
2019-05-20T00:54:29.296Z,11.93
2019-05-20T00:56:55.545Z,10.72
2019-05-20T00:59:21.723Z,10.65
2019-05-20T01:01:47.935Z,15.23
2019-05-20T01:04:14.159Z,15.38
2019-05-20T01:06:40.430Z,11.38
2019-05-20T01:09:06.906Z,12.13
2019-05-20T01:11:33.210Z,12.47
2019-05-20T01:13:59.542Z,17.75
2019-05-20T01:16:25.728Z,14.43
2019-05-20T01:18:52.023Z,12.15
2019-05-20T01:21:18.216Z,13.50
2019-05-20T01:23:44.482Z,12.90
2019-05-20T01:26:10.673Z,14.50
2019-05-20T01:28:36.870Z,14.10
2019-05-20T01:31:03.350Z,13.28
2019-05-20T01:33:29.542Z,11.80
2019-05-20T01:35:55.742Z,13.85
2019-05-20T01:38:21.922Z,15.70
2019-05-20T01:40:48.131Z,16.17
2019-05-20T01:43:14.454Z,9.83
2019-05-20T01:45:40.651Z,16.60
2019-05-20T01:48:06.812Z,16.62
2019-05-20T01:50:33.124Z,13.08
2019-05-20T01:52:59.342Z,14.85
2019-05-20T01:55:25.749Z,14.50
2019-05-20T01:57:51.918Z,18.33
2019-05-20T02:00:18.599Z,15.98
2019-05-20T02:02:44.784Z,15.58
2019-05-20T02:05:11.689Z,16.20
2019-05-20T02:07:38.076Z,16.23
2019-05-20T02:10:06.467Z,16.50
2019-05-20T02:12:32.654Z,17.90
2019-05-20T02:15:00.766Z,14.47
2019-05-20T02:17:26.958Z,16.37
2019-05-20T02:19:53.133Z,19.10
2019-05-20T02:22:19.479Z,15.72
2019-05-20T02:24:45.734Z,17.87
2019-05-20T02:27:11.915Z,25.15
2019-05-20T02:29:38.121Z,23.42
2019-05-20T02:32:04.353Z,24.30
2019-05-20T02:34:30.627Z,23.00
2019-05-20T02:36:56.801Z,29.07
2019-05-20T02:39:26.450Z,31.85
2019-05-20T02:41:51.268Z,30.12
2019-05-20T02:44:17.450Z,34.78
2019-05-20T02:46:43.636Z,34.13
2019-05-20T02:49:09.817Z,38.45
2019-05-20T02:51:36.015Z,40.20
2019-05-20T02:54:02.497Z,37.40
2019-05-20T02:56:29.557Z,36.23
2019-05-20T02:58:56.550Z,35.40
2019-05-20T03:01:23.394Z,45.00
2019-05-20T03:03:49.574Z,38.10
2019-05-20T03:06:15.763Z,37.42
2019-05-20T03:08:41.966Z,39.80
2019-05-20T03:11:08.229Z,41.30
2019-05-20T03:13:35.532Z,41.15
2019-05-20T03:16:01.792Z,42.20
2019-05-20T03:18:27.967Z,39.50
2019-05-20T03:20:54.157Z,41.23
2019-05-20T03:23:20.511Z,37.63
2019-05-20T03:25:46.799Z,40.92
2019-05-20T03:28:13.169Z,40.75
2019-05-20T03:30:39.401Z,34.98
2019-05-20T03:33:05.690Z,43.13
2019-05-20T03:35:31.880Z,39.30
2019-05-20T03:37:58.204Z,36.35
2019-05-20T03:40:24.379Z,42.58
2019-05-20T03:42:50.597Z,40.10
2019-05-20T03:45:16.835Z,38.73
2019-05-20T03:47:43.177Z,47.00
2019-05-20T03:50:09.685Z,46.45
2019-05-20T03:52:35.941Z,41.70
2019-05-20T03:55:05.326Z,46.50
2019-05-20T03:57:31.575Z,40.88
2019-05-20T03:59:57.749Z,41.60
2019-05-20T04:02:23.907Z,39.85
2019-05-20T04:05:01.623Z,38.73
2019-05-20T04:07:18.189Z,50.17
2019-05-20T04:09:44.371Z,38.20
2019-05-20T04:12:10.708Z,37.28
2019-05-20T04:14:37.155Z,41.25
2019-05-20T04:17:03.357Z,40.35
2019-05-20T04:19:29.716Z,38.28
2019-05-20T04:21:55.916Z,39.78
2019-05-20T04:24:22.110Z,42.67
2019-05-20T04:26:52.108Z,37.98
2019-05-20T04:29:18.392Z,40.03
2019-05-20T04:31:44.706Z,47.65
2019-05-20T04:34:10.920Z,44.58
2019-05-20T04:36:37.250Z,46.53
2019-05-20T04:39:05.061Z,41.98
2019-05-20T04:41:31.395Z,40.10
2019-05-20T04:43:58.033Z,46.37
2019-05-20T04:46:24.269Z,41.05
2019-05-20T04:48:50.440Z,42.93
2019-05-20T04:51:16.711Z,40.28
2019-05-20T04:53:43.818Z,48.28
2019-05-20T04:56:09.973Z,42.38
2019-05-20T04:58:36.261Z,42.62
2019-05-20T05:01:02.995Z,47.70
2019-05-20T05:03:29.840Z,47.35
2019-05-20T05:05:56.459Z,45.80
2019-05-20T05:08:23.445Z,45.98
2019-05-20T05:10:50.361Z,43.60
2019-05-20T05:13:16.775Z,47.05
2019-05-20T05:15:44.942Z,51.68
2019-05-20T05:18:12.955Z,53.75
2019-05-20T05:20:40.022Z,45.98
2019-05-20T05:23:06.309Z,46.42
2019-05-20T05:25:33.905Z,49.33
2019-05-20T05:28:00.130Z,44.70
2019-05-20T05:30:27.362Z,48.75
2019-05-20T05:32:53.784Z,58.08
2019-05-20T05:35:20.354Z,53.48
2019-05-20T05:37:48.251Z,50.12
2019-05-20T05:40:15.477Z,55.05
2019-05-20T05:42:41.734Z,49.67
2019-05-20T05:45:08.634Z,52.78
2019-05-20T05:47:35.513Z,51.10
2019-05-20T05:50:03.551Z,46.77
2019-05-20T05:52:29.858Z,49.70
2019-05-20T05:54:56.436Z,52.20
2019-05-20T05:57:23.422Z,55.40
2019-05-20T05:59:49.712Z,41.75
2019-05-20T06:02:16.404Z,46.30
2019-05-20T06:04:43.303Z,49.25
2019-05-20T06:07:09.582Z,44.83
2019-05-20T06:09:35.827Z,52.73
2019-05-20T06:12:02.701Z,41.70
2019-05-20T06:14:29.550Z,48.17
2019-05-20T06:16:55.858Z,56.75
2019-05-20T06:19:22.301Z,48.58
2019-05-20T06:21:49.101Z,49.18
2019-05-20T06:24:15.497Z,49.50
2019-05-20T06:26:41.746Z,50.43
2019-05-20T06:29:08.125Z,44.30
2019-05-20T06:31:35.137Z,53.38
2019-05-20T06:34:01.553Z,47.98
2019-05-20T06:36:28.140Z,49.67
2019-05-20T06:38:56.870Z,56.20
2019-05-20T06:41:23.408Z,53.17
2019-05-20T06:43:51.395Z,46.75
2019-05-20T06:46:18.531Z,46.60
2019-05-20T06:48:45.340Z,46.23
2019-05-20T06:51:11.905Z,45.00
2019-05-20T06:53:38.938Z,43.33
2019-05-20T06:56:05.337Z,41.30
2019-05-20T06:58:31.690Z,49.33
2019-05-20T07:00:58.273Z,49.90
2019-05-20T07:03:25.171Z,55.60
2019-05-20T07:05:51.601Z,44.67
2019-05-20T07:08:18.153Z,44.00
2019-05-20T07:10:45.374Z,57.85
2019-05-20T07:13:11.903Z,56.80
2019-05-20T07:15:38.360Z,49.75
2019-05-20T07:18:05.165Z,48.42
2019-05-20T07:20:31.667Z,45.95
2019-05-20T07:22:58.332Z,47.75
2019-05-20T07:25:25.281Z,46.13
2019-05-20T07:27:51.634Z,51.30
2019-05-20T07:30:18.641Z,47.27
2019-05-20T07:32:45.466Z,48.45
2019-05-20T07:35:26.275Z,51.25
2019-05-20T07:37:40.882Z,45.73
2019-05-20T07:40:08.250Z,49.93
2019-05-20T07:42:35.347Z,61.53
2019-05-20T07:45:02.078Z,48.55
2019-05-20T07:47:29.197Z,50.80
2019-05-20T07:49:56.663Z,51.40
2019-05-20T07:52:24.855Z,43.42
2019-05-20T07:54:53.157Z,48.78
2019-05-20T07:57:21.556Z,53.00
2019-05-20T07:59:51.623Z,44.75
2019-05-20T08:02:17.971Z,52.35
2019-05-20T08:04:44.555Z,45.83
2019-05-20T08:07:26.570Z,55.55
2019-05-20T08:09:45.203Z,49.73
2019-05-20T08:12:07.888Z,54.67
2019-05-20T08:14:34.183Z,49.30
2019-05-20T08:17:00.905Z,54.77
2019-05-20T08:19:27.439Z,56.63
2019-05-20T08:21:53.956Z,50.80
2019-05-20T08:24:20.375Z,51.85
2019-05-20T08:26:47.590Z,48.33
2019-05-20T08:29:13.842Z,51.13
2019-05-20T08:31:40.688Z,55.92
2019-05-20T08:34:07.332Z,47.55
2019-05-20T08:36:33.554Z,50.83
2019-05-20T08:38:59.807Z,47.90
2019-05-20T08:41:26.173Z,50.80
2019-05-20T08:43:52.779Z,47.58
2019-05-20T08:46:19.229Z,53.92
2019-05-20T08:48:45.595Z,54.93
2019-05-20T08:51:12.001Z,49.88
2019-05-20T08:53:38.309Z,51.90
2019-05-20T08:56:05.063Z,53.80
2019-05-20T08:58:31.328Z,46.48
2019-05-20T09:00:57.531Z,49.63
2019-05-20T09:03:24.075Z,54.65
2019-05-20T09:05:50.889Z,46.88
2019-05-20T09:08:17.387Z,47.45
2019-05-20T09:10:43.740Z,48.87
2019-05-20T09:13:10.060Z,45.88
2019-05-20T09:15:36.398Z,50.17
2019-05-20T09:18:03.218Z,46.73
2019-05-20T09:20:29.473Z,55.75
2019-05-20T09:22:55.910Z,52.23
2019-05-20T09:25:30.646Z,42.48
2019-05-20T09:27:57.758Z,43.90
2019-05-20T09:30:24.541Z,50.95
2019-05-20T09:32:51.264Z,47.23
2019-05-20T09:35:19.183Z,48.13
2019-05-20T09:37:45.675Z,52.58
2019-05-20T09:40:15.857Z,49.03
2019-05-20T09:42:42.063Z,47.75
2019-05-20T09:45:08.757Z,49.03
2019-05-20T09:47:35.266Z,56.92
2019-05-20T09:50:02.471Z,41.85
2019-05-20T09:52:28.992Z,50.30
2019-05-20T09:54:55.282Z,53.78
2019-05-20T09:57:21.564Z,50.98
2019-05-20T09:59:48.564Z,46.20
2019-05-20T10:02:15.039Z,48.38
2019-05-20T10:04:41.484Z,50.15
2019-05-20T10:07:08.175Z,46.18
2019-05-20T10:09:35.564Z,53.90
2019-05-20T10:12:02.364Z,54.40
2019-05-20T10:14:28.892Z,42.43
2019-05-20T10:16:55.218Z,50.63
2019-05-20T10:19:21.434Z,48.38
2019-05-20T10:21:48.103Z,50.05
2019-05-20T10:24:14.380Z,49.77
2019-05-20T10:26:40.564Z,46.08
2019-05-20T10:29:06.754Z,61.58
2019-05-20T10:31:33.391Z,46.25
2019-05-20T10:33:59.681Z,43.98
2019-05-20T10:36:26.162Z,55.58
2019-05-20T10:38:58.614Z,49.33
2019-05-20T10:41:20.648Z,43.73
2019-05-20T10:43:46.843Z,50.10
2019-05-20T10:46:13.073Z,42.48
2019-05-20T10:48:39.267Z,46.08
2019-05-20T10:51:05.536Z,44.98
2019-05-20T10:53:32.060Z,44.25
2019-05-20T10:55:58.808Z,43.58
2019-05-20T10:58:25.282Z,44.50
2019-05-20T11:01:02.547Z,43.58
2019-05-20T11:03:19.660Z,48.87
2019-05-20T11:05:45.989Z,43.55
2019-05-20T11:08:12.271Z,39.20
2019-05-20T11:10:38.636Z,47.23
2019-05-20T11:13:04.844Z,40.33
2019-05-20T11:15:31.082Z,44.48
2019-05-20T11:17:57.329Z,46.80
2019-05-20T11:20:23.587Z,46.98
2019-05-20T11:22:50.004Z,43.75
2019-05-20T11:25:16.928Z,40.85
2019-05-20T11:27:43.175Z,42.65
2019-05-20T11:30:11.558Z,40.92
2019-05-20T11:32:37.932Z,46.98
2019-05-20T11:35:05.547Z,43.38
2019-05-20T11:37:31.911Z,38.73
2019-05-20T11:39:58.092Z,43.83
2019-05-20T11:42:24.402Z,39.42
2019-05-20T11:44:50.612Z,39.98
2019-05-20T11:47:16.854Z,39.67
2019-05-20T11:49:43.135Z,45.63
2019-05-20T11:52:09.828Z,41.23
2019-05-20T11:54:36.699Z,45.95
2019-05-20T11:57:03.424Z,44.45
2019-05-20T11:59:29.788Z,40.58
2019-05-20T12:01:56.422Z,46.77
2019-05-20T12:04:23.339Z,41.92
2019-05-20T12:06:49.968Z,39.08
2019-05-20T12:09:16.255Z,38.25
2019-05-20T12:11:42.726Z,42.45
2019-05-20T12:14:09.325Z,42.17
2019-05-20T12:16:35.948Z,42.70
2019-05-20T12:19:02.959Z,38.15
2019-05-20T12:21:29.187Z,48.13
2019-05-20T12:23:55.936Z,39.50
2019-05-20T12:26:22.929Z,32.20
2019-05-20T12:28:49.577Z,37.38
2019-05-20T12:31:15.890Z,45.83
2019-05-20T12:33:42.390Z,39.88
2019-05-20T12:36:09.083Z,38.45
2019-05-20T12:38:36.932Z,43.50
2019-05-20T12:41:04.585Z,37.42
2019-05-20T12:43:31.498Z,34.88
2019-05-20T12:45:57.977Z,39.85
2019-05-20T12:48:24.317Z,37.93
2019-05-20T12:50:51.127Z,34.20
2019-05-20T12:53:17.871Z,33.88
2019-05-20T12:55:44.468Z,41.60
2019-05-20T12:58:11.418Z,41.45
2019-05-20T13:00:38.078Z,42.03
2019-05-20T13:03:04.940Z,42.03
2019-05-20T13:05:31.731Z,37.98
2019-05-20T13:07:58.288Z,40.40
2019-05-20T13:10:29.835Z,32.88
2019-05-20T13:12:53.596Z,31.93
2019-05-20T13:15:20.395Z,34.65
2019-05-20T13:17:46.793Z,37.53
2019-05-20T13:20:14.148Z,40.75
2019-05-20T13:22:41.146Z,36.73
2019-05-20T13:25:08.767Z,39.92
2019-05-20T13:27:35.921Z,37.10
2019-05-20T13:30:05.330Z,38.53
2019-05-20T13:32:32.224Z,40.30
2019-05-20T13:34:58.942Z,38.58
2019-05-20T13:37:25.654Z,39.35
2019-05-20T13:39:51.962Z,40.10
2019-05-20T13:42:18.460Z,40.40
2019-05-20T13:44:45.163Z,48.20
2019-05-20T13:47:11.834Z,42.83
2019-05-20T13:49:38.270Z,41.30
2019-05-20T13:52:04.997Z,41.13
2019-05-20T13:54:31.462Z,34.80
2019-05-20T13:56:57.908Z,35.43
2019-05-20T13:59:24.468Z,37.10
2019-05-20T14:01:51.106Z,36.00
2019-05-20T14:04:17.634Z,33.83
2019-05-20T14:06:44.141Z,36.38
2019-05-20T14:09:10.455Z,36.08
2019-05-20T14:11:36.921Z,34.33
2019-05-20T14:14:03.574Z,35.05
2019-05-20T14:16:30.148Z,37.85
2019-05-20T14:18:56.952Z,37.38
2019-05-20T14:21:23.811Z,35.90
2019-05-20T14:23:50.308Z,36.03
2019-05-20T14:26:17.361Z,36.70
2019-05-20T14:28:43.708Z,42.17
2019-05-20T14:31:10.144Z,36.15
2019-05-20T14:33:36.808Z,37.25
2019-05-20T14:36:03.784Z,42.10
2019-05-20T14:38:30.221Z,39.03
2019-05-20T14:40:57.142Z,39.38
2019-05-20T14:43:23.699Z,38.45
2019-05-20T14:45:50.171Z,35.85
2019-05-20T14:48:17.206Z,37.45
2019-05-20T14:50:43.691Z,34.92
2019-05-20T14:53:10.461Z,35.63
2019-05-20T14:55:42.525Z,34.25
2019-05-20T14:58:05.734Z,29.40
2019-05-20T15:00:32.154Z,28.45
2019-05-20T15:02:58.763Z,29.20
2019-05-20T15:05:25.805Z,27.80
2019-05-20T15:07:52.174Z,33.10
2019-05-20T15:10:18.999Z,33.20
2019-05-20T15:12:45.595Z,30.27
2019-05-20T15:15:13.491Z,30.15
2019-05-20T15:17:40.261Z,31.17
2019-05-20T15:20:07.294Z,26.97
2019-05-20T15:22:33.532Z,37.42
2019-05-20T15:25:00.201Z,31.30
2019-05-20T15:27:26.928Z,29.52
2019-05-20T15:29:53.530Z,31.12
2019-05-20T15:32:19.969Z,26.12
2019-05-20T15:34:46.867Z,27.00
2019-05-20T15:37:13.710Z,30.10
2019-05-20T15:39:40.033Z,27.60
2019-05-20T15:42:07.023Z,28.90
2019-05-20T15:44:33.684Z,29.00
2019-05-20T15:47:00.049Z,27.45
2019-05-20T15:49:27.276Z,23.77
2019-05-20T15:51:53.798Z,27.17
2019-05-20T15:54:20.373Z,24.50
2019-05-20T15:56:47.284Z,24.85
2019-05-20T15:59:13.787Z,23.75
2019-05-20T16:01:40.092Z,26.40
2019-05-20T16:04:07.668Z,24.92
2019-05-20T16:06:34.407Z,26.05
2019-05-20T16:09:01.026Z,25.80
2019-05-20T16:11:27.509Z,23.02
2019-05-20T16:13:53.806Z,32.03
2019-05-20T16:16:20.017Z,23.20
2019-05-20T16:18:46.591Z,22.77
2019-05-20T16:21:14.037Z,24.63
2019-05-20T16:23:40.697Z,24.60
2019-05-20T16:26:07.578Z,24.55
2019-05-20T16:28:33.914Z,22.87
2019-05-20T16:31:00.082Z,22.93
2019-05-20T16:33:26.549Z,24.80
2019-05-20T16:35:53.373Z,20.82
2019-05-20T16:38:19.658Z,22.35
2019-05-20T16:40:46.048Z,24.45
2019-05-20T16:43:12.731Z,23.35
2019-05-20T16:45:39.154Z,21.10
2019-05-20T16:48:05.460Z,22.93
2019-05-20T16:50:32.300Z,21.42
2019-05-20T16:52:58.930Z,21.55
2019-05-20T16:55:25.566Z,22.85
2019-05-20T16:57:51.894Z,24.12
2019-05-20T17:00:30.915Z,22.95
2019-05-20T17:02:47.562Z,26.85
2019-05-20T17:05:13.894Z,25.90
2019-05-20T17:07:40.165Z,26.05
2019-05-20T17:10:07.024Z,29.02
2019-05-20T17:12:33.608Z,32.70
2019-05-20T17:14:59.950Z,36.88
2019-05-20T17:17:26.255Z,35.05
2019-05-20T17:19:52.762Z,33.70
2019-05-20T17:22:19.333Z,32.00
2019-05-20T17:24:45.627Z,33.48
2019-05-20T17:27:11.973Z,41.50
2019-05-20T17:29:38.680Z,33.55
2019-05-20T17:32:05.412Z,34.23
2019-05-20T17:34:32.937Z,37.03
2019-05-20T17:36:59.455Z,35.35
2019-05-20T17:39:26.105Z,31.90
2019-05-20T17:41:53.073Z,33.67
2019-05-20T17:44:19.495Z,31.73
2019-05-20T17:46:45.730Z,31.57
2019-05-20T17:49:12.206Z,29.50
2019-05-20T17:51:38.577Z,31.12
2019-05-20T17:54:05.514Z,26.90
2019-05-20T17:56:32.404Z,27.13
2019-05-20T17:58:59.507Z,32.17
2019-05-20T18:01:26.013Z,31.62
2019-05-20T18:03:52.690Z,25.05
2019-05-20T18:06:19.290Z,23.95
2019-05-20T18:08:47.556Z,24.15
2019-05-20T18:11:14.003Z,24.15
2019-05-20T18:13:40.472Z,27.15
2019-05-20T18:16:06.905Z,27.15
2019-05-20T18:18:33.363Z,27.25
2019-05-20T18:20:59.935Z,24.98
2019-05-20T18:23:27.114Z,20.95
2019-05-20T18:25:53.620Z,27.10
2019-05-20T18:28:20.146Z,25.10
2019-05-20T18:30:47.153Z,22.20
2019-05-20T18:33:13.806Z,23.87
2019-05-20T18:35:40.982Z,23.40
2019-05-20T18:38:07.383Z,23.70
2019-05-20T18:40:33.704Z,26.37
2019-05-20T18:43:00.104Z,24.92
2019-05-20T18:45:26.575Z,24.95
2019-05-20T18:47:52.771Z,24.40
2019-05-20T18:50:19.217Z,25.08
2019-05-20T18:52:45.738Z,23.65
2019-05-20T18:55:12.296Z,22.87
2019-05-20T18:57:38.624Z,22.35
2019-05-20T19:00:06.693Z,24.85
2019-05-20T19:02:33.119Z,23.18
2019-05-20T19:04:59.327Z,23.85
2019-05-20T19:07:25.592Z,24.98
2019-05-20T19:09:51.872Z,20.15
2019-05-20T19:12:18.155Z,24.52
2019-05-20T19:14:44.452Z,21.87
2019-05-20T19:17:10.770Z,20.95
2019-05-20T19:19:37.160Z,16.52
2019-05-20T19:22:03.349Z,17.75
2019-05-20T19:24:29.621Z,18.85
2019-05-20T19:26:55.862Z,22.45
2019-05-20T19:29:22.390Z,16.60
2019-05-20T19:32:00.852Z,14.68
2019-05-20T19:34:16.876Z,18.82
2019-05-20T19:36:43.376Z,15.88
2019-05-20T19:39:09.747Z,17.15
2019-05-20T19:41:36.012Z,13.35
2019-05-20T19:44:02.491Z,16.75
2019-05-20T19:46:28.834Z,16.12
2019-05-20T19:48:55.046Z,20.37
2019-05-20T19:51:21.538Z,16.55
2019-05-20T19:53:47.707Z,17.77
2019-05-20T19:56:13.980Z,17.52
2019-05-20T19:58:40.245Z,18.37
2019-05-20T20:01:07.590Z,17.05
2019-05-20T20:03:33.873Z,21.23
2019-05-20T20:06:00.346Z,23.00
2019-05-20T20:08:26.594Z,27.07
2019-05-20T20:10:52.855Z,24.25
2019-05-20T20:13:19.252Z,21.90
2019-05-20T20:15:45.735Z,20.85
2019-05-20T20:18:11.936Z,24.40
2019-05-20T20:20:38.144Z,24.23
2019-05-20T20:23:04.386Z,26.85
2019-05-20T20:25:30.646Z,24.43
2019-05-20T20:27:56.822Z,25.60
2019-05-20T20:30:23.187Z,22.42
2019-05-20T20:32:49.378Z,24.12
2019-05-20T20:35:15.864Z,29.37
2019-05-20T20:37:42.087Z,21.62
2019-05-20T20:40:08.570Z,26.12
2019-05-20T20:42:34.764Z,31.37
2019-05-20T20:45:01.246Z,32.25
2019-05-20T20:47:40.832Z,26.97
2019-05-20T20:49:55.550Z,30.95
2019-05-20T20:52:21.768Z,31.68
2019-05-20T20:54:47.961Z,33.90
2019-05-20T20:57:14.234Z,30.43
2019-05-20T20:59:40.399Z,29.40
2019-05-20T21:02:06.686Z,30.25
2019-05-20T21:04:32.866Z,35.50
2019-05-20T21:06:59.127Z,34.30
2019-05-20T21:09:25.381Z,28.42
2019-05-20T21:11:51.716Z,27.40
2019-05-20T21:14:17.914Z,22.60
2019-05-20T21:16:44.178Z,23.85
2019-05-20T21:19:10.387Z,33.63
2019-05-20T21:21:36.540Z,29.98
2019-05-20T21:24:02.859Z,23.12
2019-05-20T21:26:29.199Z,29.52
2019-05-20T21:28:55.418Z,23.60
2019-05-20T21:31:21.694Z,20.50
2019-05-20T21:33:47.860Z,22.62
2019-05-20T21:36:14.104Z,20.30
2019-05-20T21:38:40.380Z,21.30
2019-05-20T21:41:06.556Z,21.90
2019-05-20T21:43:32.715Z,24.32
2019-05-20T21:45:58.933Z,16.85
2019-05-20T21:48:25.210Z,19.87
2019-05-20T21:50:51.491Z,16.50
2019-05-20T21:53:17.677Z,21.73
2019-05-20T21:55:43.863Z,20.37
2019-05-20T21:58:10.060Z,17.95
2019-05-20T22:00:47.381Z,17.90
2019-05-20T22:03:23.860Z,18.60
2019-05-20T22:05:41.877Z,19.60
2019-05-20T22:08:08.261Z,21.48
2019-05-20T22:10:34.746Z,13.60
2019-05-20T22:13:00.939Z,18.42
2019-05-20T22:15:27.137Z,17.25
2019-05-20T22:17:53.431Z,17.40
2019-05-20T22:20:19.622Z,21.02
2019-05-20T22:22:50.473Z,17.45
2019-05-20T22:25:16.760Z,15.72
2019-05-20T22:27:42.988Z,17.65
2019-05-20T22:30:09.567Z,12.43
2019-05-20T22:32:35.761Z,16.10
2019-05-20T22:35:04.098Z,15.60
2019-05-20T22:37:30.269Z,16.43
2019-05-20T22:39:56.447Z,18.37
2019-05-20T22:42:22.653Z,16.62
2019-05-20T22:44:48.806Z,15.68
2019-05-20T22:47:15.086Z,16.80
2019-05-20T22:49:41.306Z,18.37
2019-05-20T22:52:07.479Z,18.23
2019-05-20T22:54:33.648Z,17.03
2019-05-20T22:56:59.869Z,13.77
2019-05-20T22:59:26.025Z,21.15
2019-05-20T23:01:52.209Z,22.35
2019-05-20T23:04:18.386Z,15.80
2019-05-20T23:06:44.558Z,21.70
2019-05-20T23:09:10.987Z,15.03
2019-05-20T23:11:37.328Z,19.10
2019-05-20T23:14:03.597Z,17.57
2019-05-20T23:16:29.802Z,18.92
2019-05-20T23:18:55.959Z,15.32
2019-05-20T23:21:22.171Z,15.83
2019-05-20T23:23:48.521Z,14.78
2019-05-20T23:26:14.693Z,17.32
2019-05-20T23:28:40.894Z,16.82
2019-05-20T23:31:07.049Z,18.00
2019-05-20T23:33:33.230Z,14.90
2019-05-20T23:35:59.457Z,21.00
2019-05-20T23:38:25.637Z,15.45
2019-05-20T23:40:51.810Z,15.45
2019-05-20T23:43:18.008Z,15.70
2019-05-20T23:45:44.212Z,21.02
2019-05-20T23:48:10.401Z,13.57
2019-05-20T23:50:36.595Z,15.63
2019-05-20T23:53:02.783Z,17.40
2019-05-20T23:55:29.057Z,20.23
2019-05-20T23:57:55.282Z,15.13
